sensor_id;sensor_type;location;lat;lon;timestamp;temperature;humidity
83466;DHT22;73393;51.946;20.140;2023-11-19T00:00:27;1.40;89.60
83466;DHT22;73393;51.946;20.140;2023-11-19T00:02:52;1.40;89.80
83466;DHT22;73393;51.946;20.140;2023-11-19T00:05:18;1.50;89.30
83466;DHT22;73393;51.946;20.140;2023-11-19T00:07:45;1.50;88.90
83466;DHT22;73393;51.946;20.140;2023-11-19T00:10:12;1.50;88.90
83466;DHT22;73393;51.946;20.140;2023-11-19T00:12:43;1.50;88.40
83466;DHT22;73393;51.946;20.140;2023-11-19T00:15:13;1.60;88.60
83466;DHT22;73393;51.946;20.140;2023-11-19T00:17:43;1.50;86.90
83466;DHT22;73393;51.946;20.140;2023-11-19T00:20:16;1.50;87.60
83466;DHT22;73393;51.946;20.140;2023-11-19T00:22:43;1.60;88.20
83466;DHT22;73393;51.946;20.140;2023-11-19T00:25:09;1.50;88.10
83466;DHT22;73393;51.946;20.140;2023-11-19T00:27:35;1.50;88.40
83466;DHT22;73393;51.946;20.140;2023-11-19T00:30:03;1.40;89.10
83466;DHT22;73393;51.946;20.140;2023-11-19T00:32:31;1.40;89.30
83466;DHT22;73393;51.946;20.140;2023-11-19T00:34:57;1.50;89.30
83466;DHT22;73393;51.946;20.140;2023-11-19T00:37:22;1.50;89.10
83466;DHT22;73393;51.946;20.140;2023-11-19T00:39:48;1.50;89.80
83466;DHT22;73393;51.946;20.140;2023-11-19T00:42:14;1.50;89.30
83466;DHT22;73393;51.946;20.140;2023-11-19T00:44:39;1.50;89.90
83466;DHT22;73393;51.946;20.140;2023-11-19T00:47:06;1.50;89.60
83466;DHT22;73393;51.946;20.140;2023-11-19T00:49:32;1.50;89.80
83466;DHT22;73393;51.946;20.140;2023-11-19T00:51:59;1.50;89.40
83466;DHT22;73393;51.946;20.140;2023-11-19T00:54:25;1.50;89.40
83466;DHT22;73393;51.946;20.140;2023-11-19T00:56:52;1.50;89.20
83466;DHT22;73393;51.946;20.140;2023-11-19T00:59:18;1.50;89.60
83466;DHT22;73393;51.946;20.140;2023-11-19T01:01:44;1.40;89.70
83466;DHT22;73393;51.946;20.140;2023-11-19T01:04:10;1.40;90.30
83466;DHT22;73393;51.946;20.140;2023-11-19T01:06:35;1.40;90.20
83466;DHT22;73393;51.946;20.140;2023-11-19T01:09:08;1.50;90.30
83466;DHT22;73393;51.946;20.140;2023-11-19T01:11:34;1.50;90.30
83466;DHT22;73393;51.946;20.140;2023-11-19T01:14:00;1.50;90.00
83466;DHT22;73393;51.946;20.140;2023-11-19T01:16:26;1.40;90.00
83466;DHT22;73393;51.946;20.140;2023-11-19T01:18:51;1.40;90.20
83466;DHT22;73393;51.946;20.140;2023-11-19T01:21:18;1.40;90.50
83466;DHT22;73393;51.946;20.140;2023-11-19T01:23:43;1.30;90.00
83466;DHT22;73393;51.946;20.140;2023-11-19T01:26:10;1.30;90.50
83466;DHT22;73393;51.946;20.140;2023-11-19T01:28:36;1.30;90.30
83466;DHT22;73393;51.946;20.140;2023-11-19T01:31:02;1.30;90.40
83466;DHT22;73393;51.946;20.140;2023-11-19T01:33:29;1.40;90.70
83466;DHT22;73393;51.946;20.140;2023-11-19T01:35:55;1.40;90.00
83466;DHT22;73393;51.946;20.140;2023-11-19T01:38:21;1.30;90.30
83466;DHT22;73393;51.946;20.140;2023-11-19T01:40:46;1.40;90.60
83466;DHT22;73393;51.946;20.140;2023-11-19T01:43:12;1.30;90.70
83466;DHT22;73393;51.946;20.140;2023-11-19T01:45:55;1.40;90.50
83466;DHT22;73393;51.946;20.140;2023-11-19T01:48:22;1.40;90.20
83466;DHT22;73393;51.946;20.140;2023-11-19T01:50:48;1.40;90.30
83466;DHT22;73393;51.946;20.140;2023-11-19T01:53:13;1.40;90.40
83466;DHT22;73393;51.946;20.140;2023-11-19T01:55:39;1.40;90.50
83466;DHT22;73393;51.946;20.140;2023-11-19T01:58:05;1.40;90.30
83466;DHT22;73393;51.946;20.140;2023-11-19T02:00:32;1.50;90.80
83466;DHT22;73393;51.946;20.140;2023-11-19T02:02:58;1.50;90.90
83466;DHT22;73393;51.946;20.140;2023-11-19T02:05:24;1.40;90.20
83466;DHT22;73393;51.946;20.140;2023-11-19T02:07:50;1.30;90.60
83466;DHT22;73393;51.946;20.140;2023-11-19T02:10:16;1.20;91.60
83466;DHT22;73393;51.946;20.140;2023-11-19T02:12:44;1.20;91.40
83466;DHT22;73393;51.946;20.140;2023-11-19T02:15:11;1.30;91.60
83466;DHT22;73393;51.946;20.140;2023-11-19T02:17:37;1.40;91.90
83466;DHT22;73393;51.946;20.140;2023-11-19T02:20:05;1.40;91.30
83466;DHT22;73393;51.946;20.140;2023-11-19T02:22:37;1.50;91.20
83466;DHT22;73393;51.946;20.140;2023-11-19T02:25:14;1.40;91.10
83466;DHT22;73393;51.946;20.140;2023-11-19T02:30:08;1.40;91.70
83466;DHT22;73393;51.946;20.140;2023-11-19T02:32:34;1.50;91.60
83466;DHT22;73393;51.946;20.140;2023-11-19T02:35:01;1.50;91.20
83466;DHT22;73393;51.946;20.140;2023-11-19T02:37:27;1.50;91.40
83466;DHT22;73393;51.946;20.140;2023-11-19T02:39:53;1.50;91.10
83466;DHT22;73393;51.946;20.140;2023-11-19T02:42:19;1.40;91.40
83466;DHT22;73393;51.946;20.140;2023-11-19T02:44:45;1.50;91.50
83466;DHT22;73393;51.946;20.140;2023-11-19T02:47:11;1.40;90.80
83466;DHT22;73393;51.946;20.140;2023-11-19T02:49:37;1.50;91.30
83466;DHT22;73393;51.946;20.140;2023-11-19T02:52:03;1.40;91.20
83466;DHT22;73393;51.946;20.140;2023-11-19T02:54:31;1.40;91.50
83466;DHT22;73393;51.946;20.140;2023-11-19T02:57:00;1.40;91.60
83466;DHT22;73393;51.946;20.140;2023-11-19T02:59:28;1.40;91.20
83466;DHT22;73393;51.946;20.140;2023-11-19T03:02:04;1.40;91.60
83466;DHT22;73393;51.946;20.140;2023-11-19T03:04:32;1.40;91.70
83466;DHT22;73393;51.946;20.140;2023-11-19T03:06:57;1.30;91.40
83466;DHT22;73393;51.946;20.140;2023-11-19T03:09:23;1.30;91.50
83466;DHT22;73393;51.946;20.140;2023-11-19T03:11:49;1.40;91.50
83466;DHT22;73393;51.946;20.140;2023-11-19T03:14:15;1.30;91.30
83466;DHT22;73393;51.946;20.140;2023-11-19T03:16:41;1.40;91.60
83466;DHT22;73393;51.946;20.140;2023-11-19T03:19:06;1.40;91.30
83466;DHT22;73393;51.946;20.140;2023-11-19T03:21:32;1.40;91.20
83466;DHT22;73393;51.946;20.140;2023-11-19T03:23:58;1.20;91.10
83466;DHT22;73393;51.946;20.140;2023-11-19T03:26:27;1.30;91.70
83466;DHT22;73393;51.946;20.140;2023-11-19T03:28:53;1.30;91.50
83466;DHT22;73393;51.946;20.140;2023-11-19T03:31:19;1.30;91.40
83466;DHT22;73393;51.946;20.140;2023-11-19T03:33:45;1.30;91.40
83466;DHT22;73393;51.946;20.140;2023-11-19T03:36:12;1.30;91.80
83466;DHT22;73393;51.946;20.140;2023-11-19T03:38:38;1.40;91.50
83466;DHT22;73393;51.946;20.140;2023-11-19T03:41:13;1.40;91.10
83466;DHT22;73393;51.946;20.140;2023-11-19T03:43:40;1.50;91.10
83466;DHT22;73393;51.946;20.140;2023-11-19T03:46:19;1.50;91.30
83466;DHT22;73393;51.946;20.140;2023-11-19T03:48:46;1.50;91.10
83466;DHT22;73393;51.946;20.140;2023-11-19T03:51:12;1.50;91.20
83466;DHT22;73393;51.946;20.140;2023-11-19T03:53:45;1.50;91.10
83466;DHT22;73393;51.946;20.140;2023-11-19T03:56:11;1.40;91.50
83466;DHT22;73393;51.946;20.140;2023-11-19T03:58:37;1.50;91.90
83466;DHT22;73393;51.946;20.140;2023-11-19T04:01:10;1.50;91.40
83466;DHT22;73393;51.946;20.140;2023-11-19T04:03:36;1.40;91.40
83466;DHT22;73393;51.946;20.140;2023-11-19T04:06:02;1.40;91.80
83466;DHT22;73393;51.946;20.140;2023-11-19T04:08:28;1.40;91.70
83466;DHT22;73393;51.946;20.140;2023-11-19T04:10:53;1.40;91.40
83466;DHT22;73393;51.946;20.140;2023-11-19T04:13:19;1.30;91.50
83466;DHT22;73393;51.946;20.140;2023-11-19T04:15:45;1.40;91.80
83466;DHT22;73393;51.946;20.140;2023-11-19T04:18:11;1.30;91.30
83466;DHT22;73393;51.946;20.140;2023-11-19T04:20:36;1.30;91.80
83466;DHT22;73393;51.946;20.140;2023-11-19T04:23:02;1.30;91.90
83466;DHT22;73393;51.946;20.140;2023-11-19T04:25:27;1.40;91.90
83466;DHT22;73393;51.946;20.140;2023-11-19T04:27:54;1.40;91.70
83466;DHT22;73393;51.946;20.140;2023-11-19T04:30:19;1.40;91.70
83466;DHT22;73393;51.946;20.140;2023-11-19T04:32:45;1.40;91.40
83466;DHT22;73393;51.946;20.140;2023-11-19T04:35:12;1.40;91.70
83466;DHT22;73393;51.946;20.140;2023-11-19T04:37:38;1.40;91.80
83466;DHT22;73393;51.946;20.140;2023-11-19T04:40:04;1.50;91.90
83466;DHT22;73393;51.946;20.140;2023-11-19T04:42:30;1.50;91.20
83466;DHT22;73393;51.946;20.140;2023-11-19T04:44:57;1.50;91.30
83466;DHT22;73393;51.946;20.140;2023-11-19T04:47:24;1.50;91.30
83466;DHT22;73393;51.946;20.140;2023-11-19T04:49:49;1.50;91.20
83466;DHT22;73393;51.946;20.140;2023-11-19T04:52:15;1.50;91.30
83466;DHT22;73393;51.946;20.140;2023-11-19T04:54:41;1.50;90.90
83466;DHT22;73393;51.946;20.140;2023-11-19T04:57:08;1.50;90.90
83466;DHT22;73393;51.946;20.140;2023-11-19T04:59:36;1.50;91.10
83466;DHT22;73393;51.946;20.140;2023-11-19T05:02:01;1.50;90.60
83466;DHT22;73393;51.946;20.140;2023-11-19T05:04:27;1.50;90.70
83466;DHT22;73393;51.946;20.140;2023-11-19T05:06:53;1.50;91.10
83466;DHT22;73393;51.946;20.140;2023-11-19T05:09:20;1.50;90.70
83466;DHT22;73393;51.946;20.140;2023-11-19T05:11:45;1.50;91.10
83466;DHT22;73393;51.946;20.140;2023-11-19T05:14:11;1.50;91.10
83466;DHT22;73393;51.946;20.140;2023-11-19T05:16:39;1.50;90.80
83466;DHT22;73393;51.946;20.140;2023-11-19T05:19:05;1.50;90.80
83466;DHT22;73393;51.946;20.140;2023-11-19T05:21:31;1.30;91.10
83466;DHT22;73393;51.946;20.140;2023-11-19T05:23:56;1.40;91.40
83466;DHT22;73393;51.946;20.140;2023-11-19T05:26:23;1.40;91.40
83466;DHT22;73393;51.946;20.140;2023-11-19T05:28:49;1.30;91.20
83466;DHT22;73393;51.946;20.140;2023-11-19T05:31:17;1.40;91.40
83466;DHT22;73393;51.946;20.140;2023-11-19T05:33:42;1.30;91.30
83466;DHT22;73393;51.946;20.140;2023-11-19T05:36:08;1.20;91.60
83466;DHT22;73393;51.946;20.140;2023-11-19T05:38:36;1.20;92.20
83466;DHT22;73393;51.946;20.140;2023-11-19T05:41:02;1.30;92.30
83466;DHT22;73393;51.946;20.140;2023-11-19T05:43:28;1.30;91.80
83466;DHT22;73393;51.946;20.140;2023-11-19T05:45:54;1.20;92.10
83466;DHT22;73393;51.946;20.140;2023-11-19T05:48:20;1.20;91.90
83466;DHT22;73393;51.946;20.140;2023-11-19T05:50:46;1.20;91.90
83466;DHT22;73393;51.946;20.140;2023-11-19T05:53:12;1.20;92.10
83466;DHT22;73393;51.946;20.140;2023-11-19T05:55:40;1.30;92.10
83466;DHT22;73393;51.946;20.140;2023-11-19T05:58:27;1.30;91.90
83466;DHT22;73393;51.946;20.140;2023-11-19T06:00:57;1.30;91.40
83466;DHT22;73393;51.946;20.140;2023-11-19T06:03:23;1.40;91.80
83466;DHT22;73393;51.946;20.140;2023-11-19T06:05:52;1.40;90.80
83466;DHT22;73393;51.946;20.140;2023-11-19T06:08:17;1.30;91.40
83466;DHT22;73393;51.946;20.140;2023-11-19T06:10:44;1.30;91.40
83466;DHT22;73393;51.946;20.140;2023-11-19T06:13:12;1.30;91.50
83466;DHT22;73393;51.946;20.140;2023-11-19T06:15:41;1.30;91.60
83466;DHT22;73393;51.946;20.140;2023-11-19T06:18:06;1.30;91.70
83466;DHT22;73393;51.946;20.140;2023-11-19T06:20:33;1.30;91.80
83466;DHT22;73393;51.946;20.140;2023-11-19T06:22:59;1.40;91.60
83466;DHT22;73393;51.946;20.140;2023-11-19T06:25:25;1.40;91.10
83466;DHT22;73393;51.946;20.140;2023-11-19T06:27:51;1.30;91.20
83466;DHT22;73393;51.946;20.140;2023-11-19T06:30:17;1.20;91.60
83466;DHT22;73393;51.946;20.140;2023-11-19T06:32:43;1.20;92.20
83466;DHT22;73393;51.946;20.140;2023-11-19T06:35:09;1.30;92.50
83466;DHT22;73393;51.946;20.140;2023-11-19T06:37:36;1.30;92.00
83466;DHT22;73393;51.946;20.140;2023-11-19T06:40:02;1.30;91.90
83466;DHT22;73393;51.946;20.140;2023-11-19T06:42:30;1.30;91.90
83466;DHT22;73393;51.946;20.140;2023-11-19T06:44:55;1.30;92.00
83466;DHT22;73393;51.946;20.140;2023-11-19T06:47:25;1.30;92.00
83466;DHT22;73393;51.946;20.140;2023-11-19T06:49:51;1.30;92.10
83466;DHT22;73393;51.946;20.140;2023-11-19T06:52:17;1.30;92.00
83466;DHT22;73393;51.946;20.140;2023-11-19T06:54:43;1.40;91.90
83466;DHT22;73393;51.946;20.140;2023-11-19T06:57:08;1.40;92.20
83466;DHT22;73393;51.946;20.140;2023-11-19T06:59:35;1.40;92.00
83466;DHT22;73393;51.946;20.140;2023-11-19T07:02:00;1.40;91.80
83466;DHT22;73393;51.946;20.140;2023-11-19T07:04:26;1.40;92.00
83466;DHT22;73393;51.946;20.140;2023-11-19T07:06:52;1.40;92.00
83466;DHT22;73393;51.946;20.140;2023-11-19T07:09:18;1.50;92.30
83466;DHT22;73393;51.946;20.140;2023-11-19T07:11:44;1.40;92.10
83466;DHT22;73393;51.946;20.140;2023-11-19T07:14:11;1.40;91.70
83466;DHT22;73393;51.946;20.140;2023-11-19T07:16:38;1.50;92.00
83466;DHT22;73393;51.946;20.140;2023-11-19T07:19:05;1.40;91.50
83466;DHT22;73393;51.946;20.140;2023-11-19T07:21:31;1.40;91.90
83466;DHT22;73393;51.946;20.140;2023-11-19T07:23:58;1.50;91.60
83466;DHT22;73393;51.946;20.140;2023-11-19T07:26:24;1.50;91.40
83466;DHT22;73393;51.946;20.140;2023-11-19T07:28:50;1.50;91.40
83466;DHT22;73393;51.946;20.140;2023-11-19T07:31:16;1.50;91.10
83466;DHT22;73393;51.946;20.140;2023-11-19T07:33:42;1.50;91.40
83466;DHT22;73393;51.946;20.140;2023-11-19T07:36:11;1.50;91.10
83466;DHT22;73393;51.946;20.140;2023-11-19T07:38:37;1.60;91.40
83466;DHT22;73393;51.946;20.140;2023-11-19T07:41:05;1.60;90.70
83466;DHT22;73393;51.946;20.140;2023-11-19T07:43:31;1.50;90.80
83466;DHT22;73393;51.946;20.140;2023-11-19T07:45:57;1.60;90.90
83466;DHT22;73393;51.946;20.140;2023-11-19T07:48:25;1.70;90.90
83466;DHT22;73393;51.946;20.140;2023-11-19T07:50:52;1.70;90.40
83466;DHT22;73393;51.946;20.140;2023-11-19T07:53:19;1.70;90.10
83466;DHT22;73393;51.946;20.140;2023-11-19T07:55:45;1.70;90.20
83466;DHT22;73393;51.946;20.140;2023-11-19T07:58:11;1.70;90.30
83466;DHT22;73393;51.946;20.140;2023-11-19T08:00:37;1.90;90.10
83466;DHT22;73393;51.946;20.140;2023-11-19T08:03:06;2.10;89.80
83466;DHT22;73393;51.946;20.140;2023-11-19T08:05:31;2.20;89.00
83466;DHT22;73393;51.946;20.140;2023-11-19T08:07:57;2.40;88.70
83466;DHT22;73393;51.946;20.140;2023-11-19T08:10:23;2.50;88.20
83466;DHT22;73393;51.946;20.140;2023-11-19T08:12:49;2.50;86.90
83466;DHT22;73393;51.946;20.140;2023-11-19T08:15:15;2.60;86.30
83466;DHT22;73393;51.946;20.140;2023-11-19T08:17:41;2.50;86.30
83466;DHT22;73393;51.946;20.140;2023-11-19T08:20:09;2.50;86.70
83466;DHT22;73393;51.946;20.140;2023-11-19T08:22:36;2.50;86.70
83466;DHT22;73393;51.946;20.140;2023-11-19T08:25:04;2.30;86.70
83466;DHT22;73393;51.946;20.140;2023-11-19T08:27:29;2.30;87.20
83466;DHT22;73393;51.946;20.140;2023-11-19T08:29:55;2.30;87.30
83466;DHT22;73393;51.946;20.140;2023-11-19T08:32:22;2.40;87.20
83466;DHT22;73393;51.946;20.140;2023-11-19T08:34:48;2.40;86.90
83466;DHT22;73393;51.946;20.140;2023-11-19T08:37:14;2.30;86.30
83466;DHT22;73393;51.946;20.140;2023-11-19T08:39:39;2.20;86.70
83466;DHT22;73393;51.946;20.140;2023-11-19T08:42:06;2.20;85.80
83466;DHT22;73393;51.946;20.140;2023-11-19T08:44:32;2.20;86.20
83466;DHT22;73393;51.946;20.140;2023-11-19T08:46:57;2.30;86.30
83466;DHT22;73393;51.946;20.140;2023-11-19T08:49:23;2.40;86.60
83466;DHT22;73393;51.946;20.140;2023-11-19T08:51:49;2.40;86.10
83466;DHT22;73393;51.946;20.140;2023-11-19T08:54:14;2.50;85.00
83466;DHT22;73393;51.946;20.140;2023-11-19T08:56:40;2.40;85.30
83466;DHT22;73393;51.946;20.140;2023-11-19T08:59:06;2.40;85.60
83466;DHT22;73393;51.946;20.140;2023-11-19T09:01:31;2.40;85.20
83466;DHT22;73393;51.946;20.140;2023-11-19T09:03:57;2.30;84.50
83466;DHT22;73393;51.946;20.140;2023-11-19T09:06:23;2.10;85.30
83466;DHT22;73393;51.946;20.140;2023-11-19T09:08:48;2.00;85.20
83466;DHT22;73393;51.946;20.140;2023-11-19T09:11:14;2.00;85.70
83466;DHT22;73393;51.946;20.140;2023-11-19T09:13:40;1.90;85.70
83466;DHT22;73393;51.946;20.140;2023-11-19T09:16:05;2.00;86.70
83466;DHT22;73393;51.946;20.140;2023-11-19T09:18:34;2.10;86.40
83466;DHT22;73393;51.946;20.140;2023-11-19T09:21:01;2.10;85.80
83466;DHT22;73393;51.946;20.140;2023-11-19T09:23:28;2.10;85.90
83466;DHT22;73393;51.946;20.140;2023-11-19T09:25:56;2.20;85.80
83466;DHT22;73393;51.946;20.140;2023-11-19T09:28:21;2.30;85.70
83466;DHT22;73393;51.946;20.140;2023-11-19T09:30:47;2.50;85.00
83466;DHT22;73393;51.946;20.140;2023-11-19T09:33:13;2.40;84.00
83466;DHT22;73393;51.946;20.140;2023-11-19T09:35:39;2.50;83.70
83466;DHT22;73393;51.946;20.140;2023-11-19T09:38:05;2.50;83.40
83466;DHT22;73393;51.946;20.140;2023-11-19T09:40:31;2.50;84.10
83466;DHT22;73393;51.946;20.140;2023-11-19T09:42:57;2.60;84.20
83466;DHT22;73393;51.946;20.140;2023-11-19T09:45:27;2.50;84.00
83466;DHT22;73393;51.946;20.140;2023-11-19T09:47:53;2.50;83.90
83466;DHT22;73393;51.946;20.140;2023-11-19T09:50:20;2.60;83.80
83466;DHT22;73393;51.946;20.140;2023-11-19T09:52:49;2.60;83.60
83466;DHT22;73393;51.946;20.140;2023-11-19T09:55:15;2.60;83.20
83466;DHT22;73393;51.946;20.140;2023-11-19T09:57:41;2.60;83.90
83466;DHT22;73393;51.946;20.140;2023-11-19T10:00:10;2.60;83.60
83466;DHT22;73393;51.946;20.140;2023-11-19T10:02:37;2.50;83.30
83466;DHT22;73393;51.946;20.140;2023-11-19T10:05:06;2.60;84.20
83466;DHT22;73393;51.946;20.140;2023-11-19T10:07:33;2.70;83.80
83466;DHT22;73393;51.946;20.140;2023-11-19T10:10:02;2.70;83.50
83466;DHT22;73393;51.946;20.140;2023-11-19T10:12:31;2.70;83.80
83466;DHT22;73393;51.946;20.140;2023-11-19T10:14:57;2.70;83.90
83466;DHT22;73393;51.946;20.140;2023-11-19T10:17:33;2.70;83.40
83466;DHT22;73393;51.946;20.140;2023-11-19T10:19:59;2.70;83.40
83466;DHT22;73393;51.946;20.140;2023-11-19T10:22:25;2.80;84.40
83466;DHT22;73393;51.946;20.140;2023-11-19T10:24:52;2.80;84.20
83466;DHT22;73393;51.946;20.140;2023-11-19T10:27:18;2.80;84.00
83466;DHT22;73393;51.946;20.140;2023-11-19T10:29:47;2.70;83.80
83466;DHT22;73393;51.946;20.140;2023-11-19T10:32:14;2.80;84.00
83466;DHT22;73393;51.946;20.140;2023-11-19T10:34:44;2.80;83.20
83466;DHT22;73393;51.946;20.140;2023-11-19T10:37:27;2.80;82.90
83466;DHT22;73393;51.946;20.140;2023-11-19T10:39:54;2.80;83.10
83466;DHT22;73393;51.946;20.140;2023-11-19T10:42:20;2.80;82.60
83466;DHT22;73393;51.946;20.140;2023-11-19T10:44:46;2.70;83.20
83466;DHT22;73393;51.946;20.140;2023-11-19T10:47:14;2.70;83.10
83466;DHT22;73393;51.946;20.140;2023-11-19T10:49:40;2.60;83.00
83466;DHT22;73393;51.946;20.140;2023-11-19T10:52:08;2.70;83.50
83466;DHT22;73393;51.946;20.140;2023-11-19T10:54:34;2.60;83.10
83466;DHT22;73393;51.946;20.140;2023-11-19T10:57:02;2.60;83.40
83466;DHT22;73393;51.946;20.140;2023-11-19T10:59:31;2.50;84.10
83466;DHT22;73393;51.946;20.140;2023-11-19T11:02:00;2.60;85.00
83466;DHT22;73393;51.946;20.140;2023-11-19T11:04:29;2.70;84.60
83466;DHT22;73393;51.946;20.140;2023-11-19T11:06:59;2.80;84.20
83466;DHT22;73393;51.946;20.140;2023-11-19T11:09:26;2.90;83.50
83466;DHT22;73393;51.946;20.140;2023-11-19T11:11:54;2.80;83.20
83466;DHT22;73393;51.946;20.140;2023-11-19T11:14:21;2.70;83.40
83466;DHT22;73393;51.946;20.140;2023-11-19T11:16:49;2.70;84.40
83466;DHT22;73393;51.946;20.140;2023-11-19T11:19:18;2.60;84.30
83466;DHT22;73393;51.946;20.140;2023-11-19T11:21:52;2.60;84.70
83466;DHT22;73393;51.946;20.140;2023-11-19T11:27:38;2.60;85.50
83466;DHT22;73393;51.946;20.140;2023-11-19T11:32:37;2.60;84.90
83466;DHT22;73393;51.946;20.140;2023-11-19T11:35:30;2.60;85.00
83466;DHT22;73393;51.946;20.140;2023-11-19T11:38:05;2.70;85.30
83466;DHT22;73393;51.946;20.140;2023-11-19T11:40:32;2.70;84.60
83466;DHT22;73393;51.946;20.140;2023-11-19T11:42:58;2.70;85.20
83466;DHT22;73393;51.946;20.140;2023-11-19T11:45:40;2.70;84.60
83466;DHT22;73393;51.946;20.140;2023-11-19T11:48:14;2.70;84.50
83466;DHT22;73393;51.946;20.140;2023-11-19T11:50:55;2.70;84.90
83466;DHT22;73393;51.946;20.140;2023-11-19T11:53:23;2.70;85.30
83466;DHT22;73393;51.946;20.140;2023-11-19T11:58:22;2.60;85.30
83466;DHT22;73393;51.946;20.140;2023-11-19T12:00:51;2.70;85.40
83466;DHT22;73393;51.946;20.140;2023-11-19T12:03:20;2.60;84.90
83466;DHT22;73393;51.946;20.140;2023-11-19T12:05:47;2.70;86.00
83466;DHT22;73393;51.946;20.140;2023-11-19T12:08:14;2.70;86.00
83466;DHT22;73393;51.946;20.140;2023-11-19T12:10:49;2.70;85.70
83466;DHT22;73393;51.946;20.140;2023-11-19T12:13:16;2.60;85.70
83466;DHT22;73393;51.946;20.140;2023-11-19T12:18:31;2.60;86.50
83466;DHT22;73393;51.946;20.140;2023-11-19T12:20:58;2.50;86.40
83466;DHT22;73393;51.946;20.140;2023-11-19T12:23:27;2.50;86.60
83466;DHT22;73393;51.946;20.140;2023-11-19T12:25:54;2.60;86.90
83466;DHT22;73393;51.946;20.140;2023-11-19T12:28:20;2.60;86.40
83466;DHT22;73393;51.946;20.140;2023-11-19T12:30:49;2.60;86.30
83466;DHT22;73393;51.946;20.140;2023-11-19T12:33:15;2.60;86.00
83466;DHT22;73393;51.946;20.140;2023-11-19T12:35:42;2.70;86.20
83466;DHT22;73393;51.946;20.140;2023-11-19T12:38:18;2.70;86.20
83466;DHT22;73393;51.946;20.140;2023-11-19T12:40:44;2.60;85.90
83466;DHT22;73393;51.946;20.140;2023-11-19T12:43:09;2.60;86.20
83466;DHT22;73393;51.946;20.140;2023-11-19T12:45:36;2.70;87.00
83466;DHT22;73393;51.946;20.140;2023-11-19T12:48:05;2.60;85.60
83466;DHT22;73393;51.946;20.140;2023-11-19T12:50:50;2.50;86.10
83466;DHT22;73393;51.946;20.140;2023-11-19T12:53:17;2.50;87.20
83466;DHT22;73393;51.946;20.140;2023-11-19T12:55:43;2.50;86.80
83466;DHT22;73393;51.946;20.140;2023-11-19T12:58:09;2.50;87.00
83466;DHT22;73393;51.946;20.140;2023-11-19T13:00:34;2.50;87.60
83466;DHT22;73393;51.946;20.140;2023-11-19T13:03:01;2.60;87.70
83466;DHT22;73393;51.946;20.140;2023-11-19T13:05:33;2.60;87.80
83466;DHT22;73393;51.946;20.140;2023-11-19T13:08:09;2.60;87.90
83466;DHT22;73393;51.946;20.140;2023-11-19T13:10:52;2.60;88.80
83466;DHT22;73393;51.946;20.140;2023-11-19T13:13:19;2.60;88.40
83466;DHT22;73393;51.946;20.140;2023-11-19T13:15:45;2.50;88.70
83466;DHT22;73393;51.946;20.140;2023-11-19T13:18:11;2.50;89.80
83466;DHT22;73393;51.946;20.140;2023-11-19T13:20:37;2.30;89.80
83466;DHT22;73393;51.946;20.140;2023-11-19T13:23:04;2.30;90.90
83466;DHT22;73393;51.946;20.140;2023-11-19T13:25:31;2.30;91.20
83466;DHT22;73393;51.946;20.140;2023-11-19T13:27:57;2.10;91.30
83466;DHT22;73393;51.946;20.140;2023-11-19T13:30:23;2.10;92.10
83466;DHT22;73393;51.946;20.140;2023-11-19T13:32:50;1.90;92.20
83466;DHT22;73393;51.946;20.140;2023-11-19T13:35:16;1.70;93.10
83466;DHT22;73393;51.946;20.140;2023-11-19T13:37:43;1.70;93.30
83466;DHT22;73393;51.946;20.140;2023-11-19T13:40:09;1.70;93.50
83466;DHT22;73393;51.946;20.140;2023-11-19T13:42:36;1.60;93.40
83466;DHT22;73393;51.946;20.140;2023-11-19T13:45:12;1.60;93.70
83466;DHT22;73393;51.946;20.140;2023-11-19T13:47:39;1.60;93.70
83466;DHT22;73393;51.946;20.140;2023-11-19T13:50:07;1.60;93.50
83466;DHT22;73393;51.946;20.140;2023-11-19T13:52:33;1.60;93.60
83466;DHT22;73393;51.946;20.140;2023-11-19T13:54:59;1.60;93.90
83466;DHT22;73393;51.946;20.140;2023-11-19T13:57:24;1.60;94.10
83466;DHT22;73393;51.946;20.140;2023-11-19T13:59:50;1.50;94.20
83466;DHT22;73393;51.946;20.140;2023-11-19T14:02:16;1.50;94.40
83466;DHT22;73393;51.946;20.140;2023-11-19T14:04:41;1.50;94.40
83466;DHT22;73393;51.946;20.140;2023-11-19T14:07:07;1.50;94.50
83466;DHT22;73393;51.946;20.140;2023-11-19T14:09:32;1.50;94.70
83466;DHT22;73393;51.946;20.140;2023-11-19T14:11:58;1.50;94.80
83466;DHT22;73393;51.946;20.140;2023-11-19T14:14:24;1.50;94.70
83466;DHT22;73393;51.946;20.140;2023-11-19T14:16:49;1.50;94.80
83466;DHT22;73393;51.946;20.140;2023-11-19T14:19:15;1.40;95.00
83466;DHT22;73393;51.946;20.140;2023-11-19T14:21:40;1.30;95.50
83466;DHT22;73393;51.946;20.140;2023-11-19T14:24:06;1.30;96.00
83466;DHT22;73393;51.946;20.140;2023-11-19T14:26:32;1.30;95.90
83466;DHT22;73393;51.946;20.140;2023-11-19T14:28:57;1.30;95.80
83466;DHT22;73393;51.946;20.140;2023-11-19T14:31:23;1.30;96.00
83466;DHT22;73393;51.946;20.140;2023-11-19T14:33:48;1.30;96.20
83466;DHT22;73393;51.946;20.140;2023-11-19T14:36:14;1.30;96.10
83466;DHT22;73393;51.946;20.140;2023-11-19T14:38:41;1.30;96.10
83466;DHT22;73393;51.946;20.140;2023-11-19T14:41:06;1.30;96.30
83466;DHT22;73393;51.946;20.140;2023-11-19T14:43:33;1.10;97.10
83466;DHT22;73393;51.946;20.140;2023-11-19T14:45:58;1.00;97.80
83466;DHT22;73393;51.946;20.140;2023-11-19T14:48:24;1.00;98.20
83466;DHT22;73393;51.946;20.140;2023-11-19T14:50:49;1.00;98.70
83466;DHT22;73393;51.946;20.140;2023-11-19T14:53:15;1.10;98.50
83466;DHT22;73393;51.946;20.140;2023-11-19T14:55:41;1.10;98.10
83466;DHT22;73393;51.946;20.140;2023-11-19T14:58:06;1.20;98.00
83466;DHT22;73393;51.946;20.140;2023-11-19T15:00:33;1.20;97.90
83466;DHT22;73393;51.946;20.140;2023-11-19T15:02:59;1.20;98.10
83466;DHT22;73393;51.946;20.140;2023-11-19T15:05:25;1.20;97.90
83466;DHT22;73393;51.946;20.140;2023-11-19T15:07:54;1.30;97.80
83466;DHT22;73393;51.946;20.140;2023-11-19T15:10:21;1.20;97.50
83466;DHT22;73393;51.946;20.140;2023-11-19T15:12:46;1.10;97.90
83466;DHT22;73393;51.946;20.140;2023-11-19T15:15:12;1.10;98.00
83466;DHT22;73393;51.946;20.140;2023-11-19T15:17:41;1.20;98.10
83466;DHT22;73393;51.946;20.140;2023-11-19T15:20:07;1.20;97.90
83466;DHT22;73393;51.946;20.140;2023-11-19T15:22:33;1.20;98.00
83466;DHT22;73393;51.946;20.140;2023-11-19T15:24:59;1.20;98.10
83466;DHT22;73393;51.946;20.140;2023-11-19T15:27:24;1.30;97.90
83466;DHT22;73393;51.946;20.140;2023-11-19T15:29:50;1.30;97.90
83466;DHT22;73393;51.946;20.140;2023-11-19T15:32:16;1.20;97.90
83466;DHT22;73393;51.946;20.140;2023-11-19T15:34:42;1.20;98.30
83466;DHT22;73393;51.946;20.140;2023-11-19T15:37:08;1.30;98.60
83466;DHT22;73393;51.946;20.140;2023-11-19T15:39:34;1.30;98.20
83466;DHT22;73393;51.946;20.140;2023-11-19T15:42:03;1.30;98.60